Time;durP1;ratioP1;P1;durP2;ratioP2;P2;SDS_P1;SDS_P2;PMS_P1;PMS_P2;Temp;Humidity;BMP_temperature;BMP_pressure;BME280_temperature;BME280_humidity;BME280_pressure;Samples;Min_cycle;Max_cycle;Signal;HPM_P1;HPM_P2
2023/08/28 00:01:00;;;;;;;;;;;;;;;25.67;45.04;101060.59;5018493;28;19942;-68
2023/08/28 00:03:26;;;;;;;;;;;;;;;25.68;44.82;101057.78;5002013;28;20513;-68
2023/08/28 00:05:51;;;;;;;;;;;;;;;25.67;45.06;101057.94;4998138;28;20404;-68
2023/08/28 00:08:16;;;;;;;;;;;;;;;25.68;45.08;101054.28;4999019;28;19935;-68
2023/08/28 00:10:42;;;;;;;;;;;;;;;25.70;44.93;101058.38;4994691;28;19950;-68
2023/08/28 00:13:08;;;;;;;;;;;;;;;25.70;45.11;101065.56;4996187;28;19981;-67
2023/08/28 00:15:33;;;;;;;;;;;;;;;25.66;44.81;101057.13;5004611;28;19970;-68
2023/08/28 00:17:59;;;;;;;;;;;;;;;25.64;45.15;101059.19;4993348;28;19986;-68
2023/08/28 00:20:24;;;;;;;;;;;;;;;25.66;44.85;101061.63;5001155;28;20401;-68
2023/08/28 00:22:49;;;;;;;;;;;;;;;25.65;44.93;101055.47;5000572;28;20042;-68
2023/08/28 00:25:15;;;;;;;;;;;;;;;25.64;45.16;101061.84;5002487;28;19946;-69
2023/08/28 00:27:40;;;;;;;;;;;;;;;25.67;44.86;101064.06;5004439;28;19941;-68
2023/08/28 00:30:06;;;;;;;;;;;;;;;25.65;44.92;101058.16;5015983;28;19947;-69
2023/08/28 00:32:34;;;;;;;;;;;;;;;25.65;45.10;101060.81;5002276;28;19949;-69
2023/08/28 00:34:59;;;;;;;;;;;;;;;25.65;45.19;101054.66;4999824;28;20003;-68
2023/08/28 00:37:25;;;;;;;;;;;;;;;25.65;45.07;101058.16;5002636;28;19938;-68
2023/08/28 00:39:51;;;;;;;;;;;;;;;25.65;45.07;101052.00;4996875;28;19950;-67
2023/08/28 00:42:16;;;;;;;;;;;;;;;25.65;44.97;101044.81;4995775;28;20523;-67
2023/08/28 00:44:42;;;;;;;;;;;;;;;25.64;44.84;101045.03;4999429;28;20008;-68
2023/08/28 00:47:10;;;;;;;;;;;;;;;25.64;44.80;101037.84;4995781;28;19942;-68
2023/08/28 00:49:36;;;;;;;;;;;;;;;25.67;45.14;101039.25;5029958;28;19956;-68
2023/08/28 00:52:02;;;;;;;;;;;;;;;25.65;45.11;101038.66;4999670;28;20350;-69
2023/08/28 00:54:27;;;;;;;;;;;;;;;25.66;45.03;101037.63;5002204;28;20023;-67
2023/08/28 00:56:54;;;;;;;;;;;;;;;25.64;45.07;101037.03;5004956;28;19941;-67
2023/08/28 00:59:20;;;;;;;;;;;;;;;25.65;44.86;101036.81;5011889;28;19954;-67
2023/08/28 01:01:45;;;;;;;;;;;;;;;25.66;44.78;101037.63;5013156;28;19948;-68
2023/08/28 01:04:11;;;;;;;;;;;;;;;25.64;45.08;101037.03;5003030;28;19985;-68
2023/08/28 01:06:56;;;;;;;;;;;;;;;25.65;44.76;101028.00;5004951;28;19980;-68
2023/08/28 01:09:24;;;;;;;;;;;;;;;25.63;45.14;101022.88;5040735;28;20381;-67
2023/08/28 01:11:54;;;;;;;;;;;;;;;25.64;44.93;101021.03;5006213;28;19988;-67
2023/08/28 01:14:25;;;;;;;;;;;;;;;25.65;44.87;101012.81;5001706;28;19974;-69
2023/08/28 01:16:52;;;;;;;;;;;;;;;25.64;45.09;101018.34;5005479;28;19974;-68
2023/08/28 01:19:27;;;;;;;;;;;;;;;25.63;44.71;101009.53;4998102;28;19942;-68
2023/08/28 01:21:59;;;;;;;;;;;;;;;25.63;45.11;101004.22;5000825;28;20032;-69
2023/08/28 01:24:25;;;;;;;;;;;;;;;25.63;44.74;100992.72;5032042;28;19936;-69
2023/08/28 01:26:52;;;;;;;;;;;;;;;25.64;44.74;100986.34;4996008;28;19951;-68
2023/08/28 01:29:17;;;;;;;;;;;;;;;25.63;45.05;100993.53;5002305;28;19989;-68
2023/08/28 01:31:42;;;;;;;;;;;;;;;25.61;45.02;100995.59;5009601;28;19941;-67
2023/08/28 01:34:08;;;;;;;;;;;;;;;25.61;45.08;101001.75;4994156;28;19999;-68
2023/08/28 01:36:39;;;;;;;;;;;;;;;25.61;44.91;101000.94;5000825;28;19949;-67
2023/08/28 01:39:07;;;;;;;;;;;;;;;25.61;45.05;101007.09;4985548;28;19943;-67
2023/08/28 01:41:33;;;;;;;;;;;;;;;25.62;45.03;101005.25;4993696;28;20810;-67
2023/08/28 01:44:01;;;;;;;;;;;;;;;25.61;45.04;101006.28;4999625;28;19945;-68
2023/08/28 01:46:31;;;;;;;;;;;;;;;25.61;45.03;101001.75;4996051;28;20488;-68
2023/08/28 01:48:57;;;;;;;;;;;;;;;25.60;44.76;101009.97;5018755;28;19945;-69
2023/08/28 01:51:22;;;;;;;;;;;;;;;25.61;45.06;101015.09;5001993;28;19943;-67
2023/08/28 01:53:48;;;;;;;;;;;;;;;25.59;45.06;101019.00;4994748;28;19968;-67
2023/08/28 01:56:16;;;;;;;;;;;;;;;25.60;45.10;101021.44;5021716;28;20541;-67
2023/08/28 01:58:45;;;;;;;;;;;;;;;25.60;44.63;101028.63;4983673;28;20416;-69
2023/08/28 02:01:11;;;;;;;;;;;;;;;25.59;44.97;101027.81;5014647;28;19943;-68
2023/08/28 02:03:38;;;;;;;;;;;;;;;25.58;45.07;101028.03;4992650;28;19943;-68
2023/08/28 02:06:04;;;;;;;;;;;;;;;25.59;44.89;101035.00;5013581;28;19946;-69
2023/08/28 02:08:29;;;;;;;;;;;;;;;25.57;45.07;101031.72;5009633;28;19947;-68
2023/08/28 02:10:55;;;;;;;;;;;;;;;25.58;44.84;101033.38;5024702;28;20443;-67
2023/08/28 02:13:21;;;;;;;;;;;;;;;25.57;44.92;101040.56;4997826;28;20302;-69
2023/08/28 02:15:46;;;;;;;;;;;;;;;25.59;44.83;101051.81;5025536;28;19951;-68
2023/08/28 02:18:12;;;;;;;;;;;;;;;25.55;45.05;101049.81;4995559;28;19985;-69
2023/08/28 02:20:37;;;;;;;;;;;;;;;25.58;44.83;101052.03;5022589;28;19937;-68
2023/08/28 02:23:03;;;;;;;;;;;;;;;25.58;44.68;101057.38;5010738;28;20039;-67
2023/08/28 02:25:28;;;;;;;;;;;;;;;25.57;44.96;101063.75;5013213;28;19932;-67
2023/08/28 02:27:54;;;;;;;;;;;;;;;25.54;44.88;101056.97;5001858;28;19944;-68
2023/08/28 02:30:19;;;;;;;;;;;;;;;25.53;45.07;101055.34;4994739;28;20500;-67
2023/08/28 02:32:45;;;;;;;;;;;;;;;25.55;45.07;101061.28;4995689;28;19962;-67
2023/08/28 02:35:13;;;;;;;;;;;;;;;25.54;45.06;101064.16;5025471;28;20038;-67
2023/08/28 02:37:39;;;;;;;;;;;;;;;25.54;45.00;101072.97;4993187;28;19959;-67
2023/08/28 02:40:05;;;;;;;;;;;;;;;25.55;45.04;101069.28;4999339;28;20422;-70
2023/08/28 02:42:30;;;;;;;;;;;;;;;25.55;44.94;101074.63;4991987;28;19963;-68
2023/08/28 02:44:56;;;;;;;;;;;;;;;25.54;44.72;101080.97;4999516;28;20519;-68
2023/08/28 02:47:21;;;;;;;;;;;;;;;25.54;44.99;101075.66;4999266;28;19941;-68
2023/08/28 02:49:47;;;;;;;;;;;;;;;25.54;45.00;101074.84;5020469;28;20041;-69
2023/08/28 02:52:12;;;;;;;;;;;;;;;25.54;44.71;101077.50;5011406;28;20538;-67
2023/08/28 02:54:38;;;;;;;;;;;;;;;25.55;44.63;101085.28;4997267;28;19942;-68
2023/08/28 02:57:03;;;;;;;;;;;;;;;25.54;44.73;101085.50;5015196;28;20344;-67
2023/08/28 02:59:29;;;;;;;;;;;;;;;25.56;44.79;101086.09;5002807;28;19947;-68
2023/08/28 03:01:54;;;;;;;;;;;;;;;25.56;44.83;101086.09;4983417;28;20309;-68
2023/08/28 03:04:20;;;;;;;;;;;;;;;25.53;45.02;101084.69;5022945;28;19945;-67
2023/08/28 03:06:45;;;;;;;;;;;;;;;25.52;44.78;101080.38;5004401;28;19997;-67
2023/08/28 03:09:12;;;;;;;;;;;;;;;25.52;44.66;101082.22;5019288;28;20419;-68
2023/08/28 03:11:38;;;;;;;;;;;;;;;25.51;45.00;101072.59;5005051;28;20305;-67
2023/08/28 03:14:03;;;;;;;;;;;;;;;25.50;45.00;101071.78;5003865;28;19959;-68
2023/08/28 03:16:29;;;;;;;;;;;;;;;25.51;45.00;101076.06;5023273;28;19949;-69
2023/08/28 03:18:55;;;;;;;;;;;;;;;25.52;44.99;101077.72;4999589;28;19944;-67
2023/08/28 03:21:20;;;;;;;;;;;;;;;25.51;44.91;101080.59;5008600;28;20445;-67
2023/08/28 03:23:46;;;;;;;;;;;;;;;25.49;44.96;101086.09;4997135;28;19952;-68
2023/08/28 03:26:11;;;;;;;;;;;;;;;25.50;44.74;101090.44;5000450;28;20005;-67
2023/08/28 03:28:36;;;;;;;;;;;;;;;25.49;44.66;101086.09;5004308;28;19958;-67
2023/08/28 03:31:02;;;;;;;;;;;;;;;25.49;44.96;101086.09;5004020;28;19954;-67
2023/08/28 03:33:28;;;;;;;;;;;;;;;25.51;44.60;101088.59;4983545;28;19957;-67
2023/08/28 03:35:53;;;;;;;;;;;;;;;25.50;44.97;101087.78;5017744;28;20011;-68
2023/08/28 03:38:19;;;;;;;;;;;;;;;25.49;44.99;101093.28;5016398;28;20588;-67
2023/08/28 03:40:45;;;;;;;;;;;;;;;25.49;44.85;101094.09;5007080;28;19963;-67
2023/08/28 03:43:11;;;;;;;;;;;;;;;25.50;44.96;101102.94;5007644;28;19949;-67
2023/08/28 03:45:36;;;;;;;;;;;;;;;25.45;44.73;101094.75;5010117;28;19939;-67
2023/08/28 03:48:02;;;;;;;;;;;;;;;25.47;44.92;101101.50;5004543;28;20643;-68
2023/08/28 03:50:30;;;;;;;;;;;;;;;25.48;44.63;101099.66;5002858;28;19947;-67
2023/08/28 03:52:59;;;;;;;;;;;;;;;25.45;44.92;101092.91;4993853;28;19962;-68
2023/08/28 03:55:29;;;;;;;;;;;;;;;25.46;44.75;101099.88;5018634;28;20003;-69
2023/08/28 03:57:59;;;;;;;;;;;;;;;25.48;44.90;101097.81;5003843;28;19983;-69
2023/08/28 04:00:25;;;;;;;;;;;;;;;25.47;44.86;101103.34;4998823;28;19969;-68
2023/08/28 04:02:51;;;;;;;;;;;;;;;25.45;44.90;101098.22;5019799;28;20455;-67
2023/08/28 04:05:17;;;;;;;;;;;;;;;25.46;44.94;101102.53;4999563;28;19946;-67
2023/08/28 04:07:43;;;;;;;;;;;;;;;25.46;44.84;101104.38;4996253;28;19940;-67
2023/08/28 04:10:09;;;;;;;;;;;;;;;25.45;44.96;101094.75;5032125;28;19937;-67
2023/08/28 04:12:34;;;;;;;;;;;;;;;25.32;45.00;101068.97;5014028;28;20436;-67
2023/08/28 04:15:00;;;;;;;;;;;;;;;25.45;44.96;101090.22;5003644;28;20055;-69
2023/08/28 04:17:26;;;;;;;;;;;;;;;25.44;44.95;101088.59;5007922;28;20430;-67
2023/08/28 04:19:51;;;;;;;;;;;;;;;25.42;44.73;101077.31;4993629;28;20367;-68
2023/08/28 04:22:18;;;;;;;;;;;;;;;25.44;44.60;101085.13;4991021;28;19947;-67
2023/08/28 04:24:44;;;;;;;;;;;;;;;25.45;44.61;101089.41;5018713;28;19979;-68
2023/08/28 04:27:10;;;;;;;;;;;;;;;25.44;44.63;101104.59;5000321;28;20000;-67
2023/08/28 04:29:35;;;;;;;;;;;;;;;25.30;44.88;101073.66;5017137;28;20364;-68
2023/08/28 04:32:00;;;;;;;;;;;;;;;25.44;44.58;101098.44;4996444;28;19939;-67
2023/08/28 04:34:26;;;;;;;;;;;;;;;25.44;44.86;101095.78;4996348;28;19958;-67
2023/08/28 04:36:51;;;;;;;;;;;;;;;25.44;44.62;101090.44;4993624;28;19948;-67
2023/08/28 04:39:17;;;;;;;;;;;;;;;25.43;44.72;101081.63;5018853;28;20408;-67
2023/08/28 04:41:42;;;;;;;;;;;;;;;25.42;44.61;101079.16;5015151;28;19967;-67
2023/08/28 04:44:07;;;;;;;;;;;;;;;25.44;44.55;101080.59;4998170;28;19939;-68
2023/08/28 04:46:33;;;;;;;;;;;;;;;25.42;44.86;101082.66;5006800;28;20039;-67
2023/08/28 04:48:58;;;;;;;;;;;;;;;25.43;44.84;101091.47;5009697;28;19984;-69
2023/08/28 04:51:23;;;;;;;;;;;;;;;25.44;44.62;101096.59;4997419;28;19979;-69
2023/08/28 04:53:49;;;;;;;;;;;;;;;25.42;44.60;101098.66;5004505;28;19963;-67
2023/08/28 04:56:16;;;;;;;;;;;;;;;25.41;44.68;101106.88;5028316;28;20658;-67
2023/08/28 04:58:42;;;;;;;;;;;;;;;25.41;44.86;101106.88;5006737;28;19988;-68
2023/08/28 05:01:07;;;;;;;;;;;;;;;25.42;44.63;101106.66;5003659;28;19972;-67
2023/08/28 05:03:32;;;;;;;;;;;;;;;25.41;44.83;101109.53;5004496;28;19941;-67
2023/08/28 05:05:58;;;;;;;;;;;;;;;25.41;44.75;101112.19;5000077;28;20802;-68
2023/08/28 05:08:25;;;;;;;;;;;;;;;25.39;44.98;101112.41;5007134;28;19937;-67
2023/08/28 05:10:50;;;;;;;;;;;;;;;25.40;44.66;101114.03;5019127;28;19946;-67
2023/08/28 05:13:15;;;;;;;;;;;;;;;25.40;44.66;101118.56;5005208;28;20382;-68
2023/08/28 05:15:41;;;;;;;;;;;;;;;25.41;44.68;101128.19;5018173;28;20099;-67
2023/08/28 05:18:06;;;;;;;;;;;;;;;25.41;44.79;101126.34;5002906;28;19992;-68
2023/08/28 05:20:32;;;;;;;;;;;;;;;25.39;44.77;101131.06;5010338;28;20005;-67
2023/08/28 05:22:57;;;;;;;;;;;;;;;25.38;44.79;101133.94;4994517;28;20610;-69
2023/08/28 05:25:22;;;;;;;;;;;;;;;25.39;44.56;101132.91;4993253;28;19943;-69
2023/08/28 05:27:48;;;;;;;;;;;;;;;25.38;44.71;101132.09;5000789;28;19942;-68
2023/08/28 05:30:14;;;;;;;;;;;;;;;25.36;44.61;101134.16;5014047;28;19943;-69
2023/08/28 05:32:39;;;;;;;;;;;;;;;25.38;44.67;101131.28;5020344;28;19998;-67
2023/08/28 05:35:05;;;;;;;;;;;;;;;25.38;44.53;101129.44;5009955;28;20431;-67
2023/08/28 05:37:31;;;;;;;;;;;;;;;25.39;44.47;101132.91;4998383;28;19943;-69
2023/08/28 05:39:56;;;;;;;;;;;;;;;25.39;44.83;101130.25;4990679;28;20324;-69
2023/08/28 05:42:22;;;;;;;;;;;;;;;25.39;44.51;101124.91;4997256;28;20045;-68
2023/08/28 05:44:47;;;;;;;;;;;;;;;25.38;44.80;101125.94;4997094;28;19981;-69
2023/08/28 05:47:14;;;;;;;;;;;;;;;25.37;44.62;101127.78;5018151;28;20689;-67
2023/08/28 05:49:39;;;;;;;;;;;;;;;25.37;44.68;101125.13;4997674;28;20209;-67
2023/08/28 05:52:04;;;;;;;;;;;;;;;25.37;44.49;101125.13;5006557;28;19939;-67
2023/08/28 05:54:30;;;;;;;;;;;;;;;25.38;44.66;101117.94;5012261;28;19965;-67
2023/08/28 05:56:55;;;;;;;;;;;;;;;25.36;44.56;101115.50;5008025;28;20026;-67
2023/08/28 05:59:20;;;;;;;;;;;;;;;25.36;44.62;101115.50;4995215;28;20343;-67
2023/08/28 06:01:46;;;;;;;;;;;;;;;25.37;44.75;101117.13;5013779;28;19948;-67
2023/08/28 06:04:12;;;;;;;;;;;;;;;25.35;44.91;101124.53;5025682;28;20040;-67
2023/08/28 06:06:38;;;;;;;;;;;;;;;25.38;44.55;101120.63;4996288;28;20038;-67
2023/08/28 06:09:04;;;;;;;;;;;;;;;25.37;44.81;101118.97;4992373;28;20661;-68
2023/08/28 06:11:29;;;;;;;;;;;;;;;25.37;44.61;101118.97;5011373;28;19942;-68
2023/08/28 06:13:55;;;;;;;;;;;;;;;25.38;44.80;101124.09;5025822;28;20114;-67
2023/08/28 06:16:21;;;;;;;;;;;;;;;25.38;44.73;101120.63;4997081;28;19945;-67
2023/08/28 06:18:46;;;;;;;;;;;;;;;25.37;44.45;101126.97;4999320;28;20814;-68
2023/08/28 06:21:12;;;;;;;;;;;;;;;25.38;44.47;101132.09;5012602;28;19944;-67
2023/08/28 06:23:37;;;;;;;;;;;;;;;25.39;44.62;101132.91;5018378;28;19955;-69
2023/08/28 06:26:03;;;;;;;;;;;;;;;25.36;44.57;101139.50;4990553;28;19947;-67
2023/08/28 06:28:28;;;;;;;;;;;;;;;25.37;44.73;101146.47;4998617;28;19944;-67
2023/08/28 06:30:54;;;;;;;;;;;;;;;25.38;44.46;101150.75;5012318;28;19937;-67
2023/08/28 06:33:20;;;;;;;;;;;;;;;25.40;44.76;101153.22;4991472;28;20368;-70
2023/08/28 06:35:46;;;;;;;;;;;;;;;25.39;44.54;101155.06;4993896;28;19955;-67
2023/08/28 06:38:12;;;;;;;;;;;;;;;25.38;44.45;101157.94;4994032;28;19953;-67
2023/08/28 06:40:37;;;;;;;;;;;;;;;25.41;44.44;101152.19;4997535;28;19996;-69
2023/08/28 06:43:03;;;;;;;;;;;;;;;25.42;44.43;101153.81;4998111;28;21287;-68
2023/08/28 06:45:29;;;;;;;;;;;;;;;25.40;44.35;101148.69;4994768;28;19947;-68
2023/08/28 06:47:57;;;;;;;;;;;;;;;25.44;44.56;101151.75;4991552;28;20011;-67
2023/08/28 06:50:22;;;;;;;;;;;;;;;25.42;44.37;101143.16;4993123;28;21023;-67
2023/08/28 06:52:48;;;;;;;;;;;;;;;25.45;44.32;101142.72;4998101;28;19960;-67
2023/08/28 06:55:13;;;;;;;;;;;;;;;25.46;44.30;101144.38;4995036;28;20371;-69
2023/08/28 06:57:39;;;;;;;;;;;;;;;25.47;44.36;101144.16;4991721;28;19969;-69
2023/08/28 07:00:05;;;;;;;;;;;;;;;25.49;44.67;101147.44;4998327;28;19997;-67
2023/08/28 07:02:31;;;;;;;;;;;;;;;25.48;44.50;101143.13;4991222;28;20292;-67
2023/08/28 07:04:57;;;;;;;;;;;;;;;25.51;44.59;101152.59;4998960;28;19938;-68
2023/08/28 07:07:22;;;;;;;;;;;;;;;25.53;44.49;101147.84;5001331;28;20528;-69
2023/08/28 07:09:48;;;;;;;;;;;;;;;25.54;44.36;101141.50;4999462;28;19961;-67
2023/08/28 07:12:13;;;;;;;;;;;;;;;25.54;44.57;101146.81;4996081;28;19938;-66
2023/08/28 07:14:38;;;;;;;;;;;;;;;25.58;44.46;101148.84;5002061;28;19942;-66
2023/08/28 07:17:04;;;;;;;;;;;;;;;25.57;44.62;101155.22;5006704;28;19947;-66
2023/08/28 07:19:29;;;;;;;;;;;;;;;25.60;44.53;101156.66;4996863;28;20012;-66
2023/08/28 07:22:00;;;;;;;;;;;;;;;25.59;44.40;101161.16;4990709;28;19954;-66
2023/08/28 07:24:26;;;;;;;;;;;;;;;25.63;44.58;101166.88;4996157;28;19943;-67
2023/08/28 07:26:51;;;;;;;;;;;;;;;25.64;44.61;101167.69;4994007;28;20910;-67
2023/08/28 07:29:17;;;;;;;;;;;;;;;25.66;44.66;101170.97;4993109;28;19942;-68
2023/08/28 07:31:42;;;;;;;;;;;;;;;25.67;44.31;101169.94;4998827;28;19941;-67
2023/08/28 07:34:08;;;;;;;;;;;;;;;25.70;44.64;101172.25;4996764;28;19990;-67
2023/08/28 07:36:35;;;;;;;;;;;;;;;25.71;44.26;101176.56;4996267;28;20409;-67
2023/08/28 07:39:00;;;;;;;;;;;;;;;25.72;44.38;101180.84;5004128;28;19990;-67
2023/08/28 07:41:26;;;;;;;;;;;;;;;25.71;44.35;101185.38;5001551;28;19960;-66
2023/08/28 07:43:51;;;;;;;;;;;;;;;25.72;44.67;101188.84;4998670;28;19995;-66
2023/08/28 07:46:17;;;;;;;;;;;;;;;25.76;44.30;101187.41;4992618;28;20000;-66
2023/08/28 07:48:42;;;;;;;;;;;;;;;25.75;44.75;101188.44;4998014;28;20310;-67
2023/08/28 07:51:08;;;;;;;;;;;;;;;25.78;44.69;101186.16;5008376;28;19989;-67
2023/08/28 07:53:34;;;;;;;;;;;;;;;25.78;44.54;101180.00;5001626;28;20412;-66
2023/08/28 07:56:01;;;;;;;;;;;;;;;25.78;44.39;101191.50;4997840;28;19952;-68
2023/08/28 07:58:26;;;;;;;;;;;;;;;25.78;44.38;101180.00;5005115;28;19953;-66
2023/08/28 08:00:51;;;;;;;;;;;;;;;25.77;44.65;101187.19;5000750;28;20928;-67
2023/08/28 08:03:17;;;;;;;;;;;;;;;25.81;44.72;101187.56;5002132;28;20372;-67
2023/08/28 08:05:43;;;;;;;;;;;;;;;25.83;44.56;101196.19;4998042;28;19952;-67
2023/08/28 08:08:08;;;;;;;;;;;;;;;25.86;44.38;101198.47;5003095;28;19961;-67
2023/08/28 08:10:33;;;;;;;;;;;;;;;25.87;44.53;101197.44;4998675;28;20518;-67
2023/08/28 08:12:59;;;;;;;;;;;;;;;25.86;44.33;101196.59;4998865;28;20549;-66
2023/08/28 08:15:24;;;;;;;;;;;;;;;25.88;44.26;101202.56;4999710;28;20403;-67
2023/08/28 08:17:50;;;;;;;;;;;;;;;25.88;44.52;101205.22;4997405;28;19945;-67
2023/08/28 08:20:15;;;;;;;;;;;;;;;25.89;44.74;101204.19;4996674;28;20040;-67
2023/08/28 08:22:42;;;;;;;;;;;;;;;25.89;44.35;101201.50;5004870;28;19951;-67
2023/08/28 08:25:09;;;;;;;;;;;;;;;25.88;44.63;101199.88;4998330;28;19938;-67
2023/08/28 08:27:35;;;;;;;;;;;;;;;25.95;44.55;101207.03;5004390;28;20127;-67
2023/08/28 08:30:00;;;;;;;;;;;;;;;25.93;44.13;101204.56;5000830;28;19948;-66
2023/08/28 08:32:25;;;;;;;;;;;;;;;25.93;44.55;101195.75;4999865;28;20280;-66
2023/08/28 08:34:51;;;;;;;;;;;;;;;25.93;44.65;101198.41;4995972;28;20053;-67
2023/08/28 08:37:16;;;;;;;;;;;;;;;25.96;44.16;101198.81;4999912;28;19947;-67
2023/08/28 08:39:42;;;;;;;;;;;;;;;25.96;44.54;101198.81;4994904;28;20003;-66
2023/08/28 08:42:08;;;;;;;;;;;;;;;25.97;44.58;101203.13;4999146;28;21937;-66
2023/08/28 08:44:33;;;;;;;;;;;;;;;25.96;44.52;101198.00;5001677;28;19942;-66
2023/08/28 08:47:02;;;;;;;;;;;;;;;25.99;44.31;101201.06;4998846;28;19953;-66
2023/08/28 08:49:30;;;;;;;;;;;;;;;25.99;44.21;101197.56;5001747;28;21779;-66
2023/08/28 08:51:57;;;;;;;;;;;;;;;25.98;44.20;101201.25;4994693;28;19943;-66
2023/08/28 08:54:24;;;;;;;;;;;;;;;26.00;44.18;101200.03;5004961;28;20640;-66
2023/08/28 08:56:53;;;;;;;;;;;;;;;25.99;44.53;101206.38;4992456;28;20001;-66
2023/08/28 08:59:19;;;;;;;;;;;;;;;26.00;44.21;101215.22;5002044;28;19933;-67
2023/08/28 09:01:45;;;;;;;;;;;;;;;26.02;44.46;101213.16;4997453;28;19999;-67
2023/08/28 09:04:12;;;;;;;;;;;;;;;26.04;44.36;101213.78;5003623;28;19943;-67
2023/08/28 09:06:39;;;;;;;;;;;;;;;26.04;44.51;101214.59;5001176;28;19939;-67
2023/08/28 09:09:06;;;;;;;;;;;;;;;26.03;44.40;101207.63;5006274;28;20023;-67
2023/08/28 09:11:31;;;;;;;;;;;;;;;26.03;44.20;101207.63;4998891;28;19953;-67
2023/08/28 09:13:57;;;;;;;;;;;;;;;26.01;44.60;101211.50;4993621;28;19963;-66
2023/08/28 09:16:23;;;;;;;;;;;;;;;26.01;44.53;101209.66;4998462;28;19934;-66
2023/08/28 09:18:49;;;;;;;;;;;;;;;26.04;44.06;101209.25;5000417;28;20320;-67
2023/08/28 09:21:15;;;;;;;;;;;;;;;26.04;44.13;101203.94;4996302;28;20298;-66
2023/08/28 09:23:44;;;;;;;;;;;;;;;26.04;44.05;101203.09;4996173;28;19941;-66
2023/08/28 09:26:18;;;;;;;;;;;;;;;26.06;44.26;101209.06;4994389;28;20029;-66
2023/08/28 09:29:03;;;;;;;;;;;;;;;26.05;44.42;101204.75;5000930;28;19935;-67
2023/08/28 09:31:32;;;;;;;;;;;;;;;26.04;44.06;101198.59;4994575;28;19932;-67
2023/08/28 09:33:57;;;;;;;;;;;;;;;26.06;44.01;101201.88;4991557;28;20441;-66
2023/08/28 09:36:24;;;;;;;;;;;;;;;26.09;44.04;101216.63;4997083;28;19940;-66
2023/08/28 09:38:50;;;;;;;;;;;;;;;26.10;44.24;101211.06;4989880;28;20878;-67
2023/08/28 09:41:15;;;;;;;;;;;;;;;26.10;44.29;101212.94;4995318;28;19938;-68
2023/08/28 09:43:41;;;;;;;;;;;;;;;26.08;44.05;101212.31;5001656;28;20389;-66
2023/08/28 09:46:07;;;;;;;;;;;;;;;26.10;44.05;101216.41;5001265;28;19947;-67
2023/08/28 09:48:34;;;;;;;;;;;;;;;26.12;44.07;101214.34;5000516;28;20446;-68
2023/08/28 09:51:00;;;;;;;;;;;;;;;26.12;44.00;101222.34;5001407;28;21076;-68
2023/08/28 09:53:26;;;;;;;;;;;;;;;26.10;44.40;101224.41;4999041;28;19954;-68
2023/08/28 09:55:54;;;;;;;;;;;;;;;26.10;44.00;101216.41;4990639;28;20312;-68
2023/08/28 09:58:23;;;;;;;;;;;;;;;26.09;44.17;101206.78;4995240;28;19941;-68
2023/08/28 10:00:50;;;;;;;;;;;;;;;26.07;44.19;101205.34;4989509;28;20872;-67
2023/08/28 10:03:15;;;;;;;;;;;;;;;26.09;44.10;101212.09;4996944;28;20451;-67
2023/08/28 10:05:44;;;;;;;;;;;;;;;26.10;44.06;101221.75;4992455;28;19997;-66
2023/08/28 10:08:10;;;;;;;;;;;;;;;26.12;43.97;101219.69;4996879;28;19953;-67
2023/08/28 10:10:36;;;;;;;;;;;;;;;26.09;43.97;101227.31;4996553;28;20572;-67
2023/08/28 10:13:06;;;;;;;;;;;;;;;26.12;43.86;101225.03;5001105;28;20003;-67
2023/08/28 10:15:33;;;;;;;;;;;;;;;26.13;43.81;101221.31;5002038;28;20032;-67
2023/08/28 10:18:06;;;;;;;;;;;;;;;26.13;43.80;101231.19;4992899;28;19962;-69
2023/08/28 10:20:33;;;;;;;;;;;;;;;26.13;44.08;101237.34;4992021;28;19954;-68
2023/08/28 10:22:59;;;;;;;;;;;;;;;26.11;44.07;101241.25;4998348;28;19951;-66
2023/08/28 10:25:25;;;;;;;;;;;;;;;26.13;43.73;101237.34;4999074;28;19941;-67
2023/08/28 10:27:51;;;;;;;;;;;;;;;26.12;44.09;101250.91;4998600;28;19951;-68
2023/08/28 10:30:19;;;;;;;;;;;;;;;26.10;44.02;101244.94;4991670;28;20304;-66
2023/08/28 10:32:44;;;;;;;;;;;;;;;26.14;43.65;101246.16;4999517;28;20067;-66
2023/08/28 10:35:10;;;;;;;;;;;;;;;26.11;43.65;101250.06;4994019;28;19938;-68
2023/08/28 10:37:37;;;;;;;;;;;;;;;26.11;43.91;101244.75;5000706;28;20335;-66
2023/08/28 10:40:03;;;;;;;;;;;;;;;26.12;43.57;101246.38;5002499;28;19942;-67
2023/08/28 10:42:29;;;;;;;;;;;;;;;26.10;43.70;101245.78;5000408;28;19975;-67
2023/08/28 10:44:55;;;;;;;;;;;;;;;26.11;43.88;101251.94;4998233;28;19974;-66
2023/08/28 10:47:21;;;;;;;;;;;;;;;26.13;43.67;101255.19;4992296;28;20050;-66
2023/08/28 10:49:46;;;;;;;;;;;;;;;26.10;43.75;101256.44;5028757;28;19944;-67
2023/08/28 10:52:11;;;;;;;;;;;;;;;26.12;43.83;101248.22;4998890;28;19988;-66
2023/08/28 10:54:38;;;;;;;;;;;;;;;26.13;44.09;101257.88;4990804;28;19967;-66
2023/08/28 10:57:10;;;;;;;;;;;;;;;26.10;44.17;101256.44;5000869;28;20024;-67
2023/08/28 10:59:42;;;;;;;;;;;;;;;26.11;43.98;101255.41;4999967;28;19951;-67
2023/08/28 11:02:09;;;;;;;;;;;;;;;26.09;44.12;101257.47;4997868;28;20025;-66
2023/08/28 11:04:36;;;;;;;;;;;;;;;26.08;43.90;101255.03;4996497;28;19942;-67
2023/08/28 11:07:02;;;;;;;;;;;;;;;26.10;44.22;101260.97;5005241;28;19940;-66
2023/08/28 11:09:27;;;;;;;;;;;;;;;26.07;44.35;101259.53;5000130;28;19944;-67
2023/08/28 11:11:59;;;;;;;;;;;;;;;26.09;44.19;101251.31;4995323;28;19942;-66
2023/08/28 11:14:26;;;;;;;;;;;;;;;26.06;44.30;101254.41;5001543;28;20517;-67
2023/08/28 11:17:04;;;;;;;;;;;;;;;26.09;44.27;101248.66;4991858;28;20019;-67
2023/08/28 11:19:30;;;;;;;;;;;;;;;26.06;43.98;101251.75;5003801;28;19943;-66
2023/08/28 11:21:58;;;;;;;;;;;;;;;26.05;44.12;101253.59;4995603;28;19939;-66
2023/08/28 11:24:24;;;;;;;;;;;;;;;26.07;43.97;101253.38;4983527;28;20419;-66
2023/08/28 11:26:49;;;;;;;;;;;;;;;26.07;44.13;101254.22;5000016;28;19962;-67
2023/08/28 11:29:33;;;;;;;;;;;;;;;26.11;43.89;101254.59;4997568;28;20134;-66
2023/08/28 11:31:58;;;;;;;;;;;;;;;26.04;43.95;101253.81;4999783;28;19943;-66
2023/08/28 11:34:24;;;;;;;;;;;;;;;26.04;43.99;101257.31;5002362;28;19975;-67
2023/08/28 11:36:49;;;;;;;;;;;;;;;26.05;44.01;101260.78;4999827;28;21441;-67
2023/08/28 11:39:23;;;;;;;;;;;;;;;26.05;43.94;101263.47;5004031;28;20346;-66
2023/08/28 11:41:49;;;;;;;;;;;;;;;26.06;44.13;101262.44;5003659;28;20474;-66
2023/08/28 11:44:15;;;;;;;;;;;;;;;26.08;43.89;101269.19;4996498;28;19950;-66
2023/08/28 11:46:41;;;;;;;;;;;;;;;26.11;44.19;101270.59;4995118;28;19954;-67
2023/08/28 11:49:07;;;;;;;;;;;;;;;26.10;44.00;101253.78;4993584;28;19934;-67
2023/08/28 11:51:32;;;;;;;;;;;;;;;26.09;43.83;101256.66;4998648;28;20005;-66
2023/08/28 11:53:58;;;;;;;;;;;;;;;26.11;43.88;101260.75;5001150;28;19988;-66
2023/08/28 11:56:24;;;;;;;;;;;;;;;26.12;43.90;101258.91;4996074;28;20082;-66
2023/08/28 11:58:50;;;;;;;;;;;;;;;26.11;44.08;101263.41;4997774;28;20380;-67
2023/08/28 12:01:15;;;;;;;;;;;;;;;26.11;44.03;101259.94;5001229;28;19936;-67
2023/08/28 12:03:42;;;;;;;;;;;;;;;26.10;44.13;101256.44;4995142;28;19951;-68
2023/08/28 12:06:08;;;;;;;;;;;;;;;26.11;43.80;101263.41;5001742;28;19953;-67
2023/08/28 12:08:38;;;;;;;;;;;;;;;26.08;43.78;101261.19;5002732;28;19945;-67
2023/08/28 12:11:12;;;;;;;;;;;;;;;26.11;43.82;101259.94;4999886;28;20606;-66
2023/08/28 12:13:37;;;;;;;;;;;;;;;26.09;44.15;101254.00;4991676;28;20044;-66
2023/08/28 12:16:06;;;;;;;;;;;;;;;26.11;43.89;101254.59;4996565;28;20588;-67
2023/08/28 12:18:46;;;;;;;;;;;;;;;26.11;44.23;101251.94;4998066;28;21581;-67
2023/08/28 12:21:12;;;;;;;;;;;;;;;26.09;44.02;101254.81;4989197;28;19944;-66
2023/08/28 12:23:46;;;;;;;;;;;;;;;26.10;43.74;101250.28;4996652;28;20038;-67
2023/08/28 12:26:11;;;;;;;;;;;;;;;26.10;43.84;101248.44;5001063;28;20468;-67
2023/08/28 12:28:37;;;;;;;;;;;;;;;26.12;43.61;101243.72;5017188;28;20055;-68
2023/08/28 12:31:02;;;;;;;;;;;;;;;26.16;43.60;101246.75;4993524;28;20016;-67